Time;durP1;ratioP1;P1;durP2;ratioP2;P2;SDS_P1;SDS_P2;PMS_P1;PMS_P2;Temp;Humidity;BMP_temperature;BMP_pressure;BME280_temperature;BME280_humidity;BME280_pressure;Samples;Min_cycle;Max_cycle;Signal;HPM_P1;HPM_P2
2024/02/16 00:01:45;;;;;;;1999.90;999.90;;;13.30;70.60;;;;;;5012729;28;20211;-72
2024/02/16 00:04:11;;;;;;;1999.90;999.90;;;13.30;67.70;;;;;;5012500;28;20180;-72
2024/02/16 00:06:37;;;;;;;1999.90;999.90;;;13.30;68.10;;;;;;5012146;28;20168;-72
2024/02/16 00:09:02;;;;;;;1999.90;999.90;;;13.30;69.20;;;;;;5011976;28;20174;-72
2024/02/16 00:11:28;;;;;;;1999.90;999.90;;;13.30;66.30;;;;;;5012589;28;20267;-72
2024/02/16 00:13:54;;;;;;;1999.90;999.90;;;13.30;67.40;;;;;;5013299;28;20715;-72
2024/02/16 00:16:21;;;;;;;1999.90;999.90;;;13.40;65.60;;;;;;5012000;28;20440;-72
2024/02/16 00:18:46;;;;;;;1999.90;999.90;;;13.30;66.20;;;;;;5011999;28;20186;-72
2024/02/16 00:21:12;;;;;;;1999.90;999.90;;;13.30;67.10;;;;;;5013295;28;20430;-72
2024/02/16 00:23:37;;;;;;;1999.90;999.90;;;13.30;66.70;;;;;;5012208;28;20246;-72
2024/02/16 00:26:07;;;;;;;1999.90;999.90;;;13.30;68.20;;;;;;5011934;28;20175;-72
2024/02/16 00:28:32;;;;;;;1999.90;999.90;;;13.30;71.50;;;;;;5012823;28;20200;-72
2024/02/16 00:30:58;;;;;;;1999.90;999.90;;;13.40;72.90;;;;;;5012941;28;20457;-72
2024/02/16 00:33:23;;;;;;;1999.90;999.90;;;13.30;72.40;;;;;;5015839;28;20169;-72
2024/02/16 00:35:49;;;;;;;1999.90;999.90;;;13.30;74.10;;;;;;5015840;28;20171;-72
2024/02/16 00:38:15;;;;;;;1999.90;999.90;;;13.30;74.80;;;;;;5017323;28;20180;-72
2024/02/16 00:40:44;;;;;;;1999.90;999.90;;;13.30;77.20;;;;;;5017333;28;20769;-72
2024/02/16 00:43:10;;;;;;;1999.90;999.90;;;13.30;76.90;;;;;;5016974;28;20177;-72
2024/02/16 00:45:36;;;;;;;1999.90;999.90;;;13.30;79.20;;;;;;5015642;28;20437;-72
2024/02/16 00:48:03;;;;;;;1999.90;999.90;;;13.30;80.70;;;;;;5016487;28;20470;-72
2024/02/16 00:50:29;;;;;;;1999.90;999.90;;;13.30;81.60;;;;;;5016440;28;20477;-72
2024/02/16 00:52:54;;;;;;;1999.90;999.90;;;13.30;83.00;;;;;;5015403;28;20769;-73
2024/02/16 00:55:20;;;;;;;1999.90;999.90;;;13.30;83.60;;;;;;5015488;28;20190;-72
2024/02/16 00:57:45;;;;;;;1999.90;999.90;;;13.30;82.10;;;;;;5015436;28;20194;-72
2024/02/16 01:00:12;;;;;;;1999.90;999.90;;;13.30;84.70;;;;;;5014857;28;20215;-73
2024/02/16 01:02:37;;;;;;;1999.90;999.90;;;13.30;85.90;;;;;;5015584;28;20661;-72
2024/02/16 01:05:04;;;;;;;1999.90;999.90;;;13.30;84.50;;;;;;5015308;28;20492;-73
2024/02/16 01:07:31;;;;;;;1999.90;999.90;;;13.30;86.30;;;;;;5015355;28;20183;-72
2024/02/16 01:09:57;;;;;;;1999.90;999.90;;;13.30;87.90;;;;;;5014828;28;20462;-72
2024/02/16 01:12:23;;;;;;;1999.90;999.90;;;13.30;85.70;;;;;;5015076;28;20933;-72
2024/02/16 01:14:48;;;;;;;1999.90;999.90;;;13.30;86.80;;;;;;5015055;28;20203;-73
2024/02/16 01:17:14;;;;;;;1999.90;999.90;;;13.30;85.90;;;;;;5015132;28;20198;-73
2024/02/16 01:19:40;;;;;;;1999.90;999.90;;;13.30;99.90;;;;;;5014747;28;20173;-73
2024/02/16 01:22:05;;;;;;;1999.90;999.90;;;13.30;88.80;;;;;;5015076;28;20185;-73
2024/02/16 01:24:31;;;;;;;1999.90;999.90;;;13.40;84.80;;;;;;5014889;28;20406;-73
2024/02/16 01:26:57;;;;;;;1999.90;999.90;;;13.50;84.50;;;;;;5014912;28;20166;-73
2024/02/16 01:29:23;;;;;;;1999.90;999.90;;;13.40;81.50;;;;;;5014472;28;20322;-72
2024/02/16 01:31:49;;;;;;;1999.90;999.90;;;13.40;82.10;;;;;;5014747;28;20459;-73
2024/02/16 01:34:15;;;;;;;1999.90;999.90;;;13.40;80.60;;;;;;5014903;28;20172;-73
2024/02/16 01:36:40;;;;;;;1999.90;999.90;;;13.40;81.60;;;;;;5014640;28;20161;-73
2024/02/16 01:39:06;;;;;;;1999.90;999.90;;;13.40;80.50;;;;;;5014704;28;20438;-71
2024/02/16 01:41:32;;;;;;;1999.90;999.90;;;13.40;80.50;;;;;;5014183;28;20232;-72
2024/02/16 01:43:58;;;;;;;1999.90;999.90;;;13.40;80.90;;;;;;5014400;28;21041;-72
2024/02/16 01:46:25;;;;;;;1999.90;999.90;;;13.40;82.80;;;;;;5014722;28;20399;-72
2024/02/16 01:48:51;;;;;;;1999.90;999.90;;;13.40;83.30;;;;;;5014509;28;20752;-72
2024/02/16 01:51:16;;;;;;;1999.90;999.90;;;13.40;83.30;;;;;;5014034;28;20465;-72
2024/02/16 01:53:42;;;;;;;1999.90;999.90;;;13.40;84.80;;;;;;5014315;28;20977;-72
2024/02/16 01:56:08;;;;;;;1999.90;999.90;;;13.40;86.10;;;;;;5014351;28;20259;-72
2024/02/16 01:58:34;;;;;;;1999.90;999.90;;;13.40;84.00;;;;;;5014267;28;20670;-70
2024/02/16 02:00:59;;;;;;;1999.90;999.90;;;13.40;86.20;;;;;;5014767;28;20448;-72
2024/02/16 02:03:25;;;;;;;1999.90;999.90;;;13.40;91.10;;;;;;5014216;28;20408;-72
2024/02/16 02:05:54;;;;;;;1999.90;999.90;;;13.40;92.40;;;;;;5014779;28;20169;-72
2024/02/16 02:08:20;;;;;;;1999.90;999.90;;;13.50;93.30;;;;;;5014267;28;20266;-72
2024/02/16 02:10:45;;;;;;;1999.90;999.90;;;13.50;93.50;;;;;;5013715;28;20486;-72
2024/02/16 02:13:11;;;;;;;1999.90;999.90;;;13.50;93.40;;;;;;5014012;28;20228;-72
2024/02/16 02:15:36;;;;;;;1999.90;999.90;;;13.50;93.10;;;;;;5013921;28;20176;-73
2024/02/16 02:18:02;;;;;;;1999.90;999.90;;;13.50;93.60;;;;;;5013903;28;20203;-72
2024/02/16 02:20:28;;;;;;;1999.90;999.90;;;13.50;93.30;;;;;;5013440;28;20232;-72
2024/02/16 02:22:53;;;;;;;1999.90;999.90;;;13.60;92.40;;;;;;5013820;28;20172;-72
2024/02/16 02:25:19;;;;;;;1999.90;999.90;;;13.60;93.00;;;;;;5013820;28;20176;-72
2024/02/16 02:27:45;;;;;;;1999.90;999.90;;;13.50;92.90;;;;;;5013886;28;20199;-72
2024/02/16 02:30:11;;;;;;;1999.90;999.90;;;13.50;94.20;;;;;;5013622;28;20463;-72
2024/02/16 02:32:36;;;;;;;1999.90;999.90;;;13.50;93.80;;;;;;5013581;28;20403;-72
2024/02/16 02:35:04;;;;;;;1999.90;999.90;;;13.60;92.80;;;;;;5013594;28;20203;-71
2024/02/16 02:37:30;;;;;;;1999.90;999.90;;;13.50;93.60;;;;;;5013567;28;20170;-71
2024/02/16 02:39:56;;;;;;;1999.90;999.90;;;13.50;94.20;;;;;;5013254;28;20415;-71
2024/02/16 02:42:22;;;;;;;1999.90;999.90;;;13.50;93.90;;;;;;5013489;28;20561;-72
2024/02/16 02:44:50;;;;;;;1999.90;999.90;;;13.50;94.40;;;;;;5013587;28;20494;-72
2024/02/16 02:47:16;;;;;;;1999.90;999.90;;;13.50;95.20;;;;;;5013565;28;20169;-73
2024/02/16 02:49:43;;;;;;;1999.90;999.90;;;13.30;99.90;;;;;;5012986;28;20862;-72
2024/02/16 02:52:09;;;;;;;1999.90;999.90;;;13.50;95.20;;;;;;5013440;28;20403;-73
2024/02/16 02:54:34;;;;;;;1999.90;999.90;;;13.50;95.40;;;;;;5012418;28;20837;-73
2024/02/16 02:57:01;;;;;;;1999.90;999.90;;;13.50;94.30;;;;;;5013143;28;20446;-73
2024/02/16 02:59:27;;;;;;;1999.90;999.90;;;13.50;93.60;;;;;;5012950;28;20239;-73
2024/02/16 03:01:53;;;;;;;1999.90;999.90;;;13.50;94.00;;;;;;5013021;28;20533;-73
2024/02/16 03:04:18;;;;;;;1999.90;999.90;;;13.60;92.70;;;;;;5013010;28;20535;-73
2024/02/16 03:06:44;;;;;;;1999.90;999.90;;;13.60;90.40;;;;;;5013089;28;20171;-73
2024/02/16 03:09:11;;;;;;;1999.90;999.90;;;13.60;90.40;;;;;;5012926;28;20165;-73
2024/02/16 03:11:37;;;;;;;1999.90;999.90;;;13.70;84.70;;;;;;5012567;28;20275;-73
2024/02/16 03:14:03;;;;;;;1999.90;999.90;;;13.70;81.70;;;;;;5012877;28;20458;-73
2024/02/16 03:16:28;;;;;;;1999.90;999.90;;;13.70;80.20;;;;;;5012875;28;20168;-73
2024/02/16 03:18:55;;;;;;;1999.90;999.90;;;13.70;80.00;;;;;;5012728;28;20411;-73
2024/02/16 03:21:21;;;;;;;1999.90;999.90;;;13.70;80.90;;;;;;5012458;28;20687;-72
2024/02/16 03:23:46;;;;;;;1999.90;999.90;;;13.70;83.50;;;;;;5012694;28;20485;-73
2024/02/16 03:26:20;;;;;;;1999.90;999.90;;;13.60;83.40;;;;;;5013070;28;20179;-73
2024/02/16 03:28:49;;;;;;;1999.90;999.90;;;13.60;85.50;;;;;;5012746;28;20169;-73
2024/02/16 03:31:18;;;;;;;1999.90;999.90;;;13.50;86.80;;;;;;5012356;28;20830;-73
2024/02/16 03:33:44;;;;;;;1999.90;999.90;;;13.50;88.70;;;;;;5012450;28;20417;-73
2024/02/16 03:36:12;;;;;;;1999.90;999.90;;;13.50;90.00;;;;;;5012569;28;20406;-73
2024/02/16 03:38:37;;;;;;;1999.90;999.90;;;13.40;91.10;;;;;;5012426;28;20180;-72
2024/02/16 03:41:04;;;;;;;1999.90;999.90;;;13.40;91.60;;;;;;5012269;28;20430;-72
2024/02/16 03:43:29;;;;;;;1999.90;999.90;;;13.40;91.40;;;;;;5012921;28;20255;-73
2024/02/16 03:45:55;;;;;;;1999.90;999.90;;;13.50;89.60;;;;;;5012663;28;20840;-71
2024/02/16 03:48:21;;;;;;;1999.90;999.90;;;13.50;87.80;;;;;;5013348;28;20176;-72
2024/02/16 03:50:46;;;;;;;1999.90;999.90;;;13.60;87.10;;;;;;5011981;28;20204;-72
2024/02/16 03:53:12;;;;;;;1999.90;999.90;;;13.70;83.90;;;;;;5012457;28;20241;-74
2024/02/16 03:55:38;;;;;;;1999.90;999.90;;;13.70;83.60;;;;;;5012316;28;20176;-74
2024/02/16 03:58:04;;;;;;;1999.90;999.90;;;13.80;84.40;;;;;;5012222;28;20677;-73
2024/02/16 04:00:29;;;;;;;1999.90;999.90;;;13.80;85.30;;;;;;5011778;28;20457;-73
2024/02/16 04:02:55;;;;;;;1999.90;999.90;;;13.80;86.80;;;;;;5012191;28;20448;-73
2024/02/16 04:05:20;;;;;;;1999.90;999.90;;;13.70;90.10;;;;;;5012034;28;20260;-73
2024/02/16 04:07:46;;;;;;;1999.90;999.90;;;13.70;91.10;;;;;;5012377;28;20174;-73
2024/02/16 04:10:11;;;;;;;1999.90;999.90;;;13.70;91.90;;;;;;5011751;28;20287;-72
2024/02/16 04:12:37;;;;;;;1999.90;999.90;;;13.70;91.70;;;;;;5012145;28;20173;-73
2024/02/16 04:15:04;;;;;;;1999.90;999.90;;;13.60;92.80;;;;;;5012351;28;20580;-73
2024/02/16 04:17:29;;;;;;;1999.90;999.90;;;13.60;93.60;;;;;;5012128;28;20528;-73
2024/02/16 04:19:55;;;;;;;1999.90;999.90;;;13.50;99.90;;;;;;5011932;28;20407;-72
2024/02/16 04:22:20;;;;;;;1999.90;999.90;;;13.40;96.70;;;;;;5012012;28;20609;-73
2024/02/16 04:24:46;;;;;;;1999.90;999.90;;;13.40;98.60;;;;;;5011977;28;20176;-72
2024/02/16 04:27:12;;;;;;;1999.90;999.90;;;13.30;99.70;;;;;;5012017;28;20182;-72
2024/02/16 04:29:37;;;;;;;1999.90;999.90;;;13.10;99.90;;;;;;5011583;28;20807;-72
2024/02/16 04:32:03;;;;;;;1999.90;999.90;;;13.30;99.90;;;;;;5012131;28;20223;-73
2024/02/16 04:34:29;;;;;;;1999.90;999.90;;;13.30;99.90;;;;;;5011876;28;20664;-73
2024/02/16 04:36:56;;;;;;;1999.90;999.90;;;13.30;99.90;;;;;;5011772;28;20462;-73
2024/02/16 04:39:21;;;;;;;1999.90;999.90;;;13.30;99.90;;;;;;5011639;28;20432;-74
2024/02/16 04:41:47;;;;;;;1999.90;999.90;;;13.30;99.90;;;;;;5043448;28;20943;-73
2024/02/16 04:44:12;;;;;;;1999.90;999.90;;;13.40;99.90;;;;;;5011773;28;20180;-74
2024/02/16 04:46:38;;;;;;;1999.90;999.90;;;13.40;99.90;;;;;;5011756;28;20175;-73
2024/02/16 04:49:03;;;;;;;1999.90;999.90;;;13.30;99.90;;;;;;5012103;28;20673;-73
2024/02/16 04:51:29;;;;;;;1999.90;999.90;;;13.40;99.90;;;;;;5011305;28;20200;-73
2024/02/16 04:53:54;;;;;;;1999.90;999.90;;;13.40;99.90;;;;;;5011692;28;20169;-73
2024/02/16 04:56:20;;;;;;;1999.90;999.90;;;13.40;99.90;;;;;;5011741;28;20735;-73
2024/02/16 04:58:46;;;;;;;1999.90;999.90;;;13.50;99.90;;;;;;5011667;28;20560;-73
2024/02/16 05:01:13;;;;;;;1999.90;999.90;;;13.50;99.70;;;;;;5011261;28;20305;-73
2024/02/16 05:03:41;;;;;;;1999.90;999.90;;;13.50;99.40;;;;;;5011581;28;20180;-74
2024/02/16 05:06:06;;;;;;;1999.90;999.90;;;13.50;99.90;;;;;;5011540;28;20406;-74
2024/02/16 05:08:32;;;;;;;1999.90;999.90;;;13.60;99.90;;;;;;5011579;28;20404;-72
2024/02/16 05:10:57;;;;;;;1999.90;999.90;;;13.60;99.90;;;;;;5011096;28;20197;-72
2024/02/16 05:13:24;;;;;;;1999.90;999.90;;;13.50;99.90;;;;;;5011499;28;20171;-72
2024/02/16 05:15:49;;;;;;;1999.90;999.90;;;13.50;99.90;;;;;;5011535;28;20305;-73
2024/02/16 05:18:16;;;;;;;1999.90;999.90;;;13.50;99.90;;;;;;5013933;28;20408;-73
2024/02/16 05:20:42;;;;;;;1999.90;999.90;;;13.40;99.90;;;;;;5014713;28;20207;-73
2024/02/16 05:23:07;;;;;;;1999.90;999.90;;;13.40;99.90;;;;;;5014937;28;20419;-73
2024/02/16 05:25:33;;;;;;;1999.90;999.90;;;13.40;99.90;;;;;;5015029;28;20176;-73
2024/02/16 05:27:59;;;;;;;1999.90;999.90;;;13.40;99.90;;;;;;5014953;28;20173;-73
2024/02/16 05:30:24;;;;;;;1999.90;999.90;;;13.30;99.90;;;;;;5014452;28;20620;-73
2024/02/16 05:32:52;;;;;;;1999.90;999.90;;;13.40;99.90;;;;;;5014905;28;20199;-73
2024/02/16 05:35:18;;;;;;;1999.90;999.90;;;13.30;99.90;;;;;;5014777;28;20554;-73
2024/02/16 05:37:47;;;;;;;1999.90;999.90;;;13.40;99.90;;;;;;5014849;28;20408;-73
2024/02/16 05:40:22;;;;;;;1999.90;999.90;;;13.30;99.90;;;;;;5014370;28;20183;-73
2024/02/16 05:42:48;;;;;;;1999.90;999.90;;;13.20;99.90;;;;;;5014577;28;20426;-73
2024/02/16 05:45:14;;;;;;;1999.90;999.90;;;13.20;99.90;;;;;;5014585;28;20414;-72
2024/02/16 05:47:42;;;;;;;1999.90;999.90;;;13.20;99.90;;;;;;5014565;28;20444;-73
2024/02/16 05:50:08;;;;;;;1999.90;999.90;;;13.20;99.90;;;;;;5014222;28;20466;-73
2024/02/16 05:52:34;;;;;;;1999.90;999.90;;;13.30;99.90;;;;;;5014538;28;20414;-72
2024/02/16 05:54:59;;;;;;;1999.90;999.90;;;13.30;99.90;;;;;;5014475;28;20511;-73
2024/02/16 05:57:25;;;;;;;1999.90;999.90;;;13.30;99.90;;;;;;5014603;28;20175;-72
2024/02/16 05:59:52;;;;;;;1999.90;999.90;;;13.60;99.90;;;;;;5013933;28;20172;-73
2024/02/16 06:02:17;;;;;;;1999.90;999.90;;;13.40;99.90;;;;;;5014252;28;20227;-73
2024/02/16 06:04:43;;;;;;;1999.90;999.90;;;13.40;99.90;;;;;;5014466;28;21097;-73
2024/02/16 06:07:10;;;;;;;1999.90;999.90;;;13.40;99.90;;;;;;5014168;28;20765;-73
2024/02/16 06:09:37;;;;;;;1999.90;999.90;;;13.40;99.90;;;;;;5013800;28;20198;-73
2024/02/16 06:12:07;;;;;;;1999.90;999.90;;;13.40;99.90;;;;;;5014149;28;20404;-72
2024/02/16 06:14:33;;;;;;;1999.90;999.90;;;13.40;99.90;;;;;;5013984;28;20404;-72
2024/02/16 06:16:59;;;;;;;1999.90;999.90;;;13.40;99.90;;;;;;5014043;28;20449;-72
2024/02/16 06:19:26;;;;;;;1999.90;999.90;;;13.50;99.10;;;;;;5014217;28;20411;-72
2024/02/16 06:21:54;;;;;;;1999.90;999.90;;;13.40;98.50;;;;;;5013863;28;20454;-73
2024/02/16 06:24:20;;;;;;;1999.90;999.90;;;13.40;99.10;;;;;;5013868;28;20407;-74
2024/02/16 06:26:46;;;;;;;1999.90;999.90;;;13.40;98.60;;;;;;5032980;28;20443;-73
2024/02/16 06:29:12;;;;;;;1999.90;999.90;;;13.40;98.80;;;;;;5033890;28;20438;-72
2024/02/16 06:31:37;;;;;;;1999.90;999.90;;;13.40;98.90;;;;;;5033153;28;20454;-73
2024/02/16 06:34:03;;;;;;;1999.90;999.90;;;13.40;98.70;;;;;;5033851;28;20199;-71
2024/02/16 06:36:28;;;;;;;1999.90;999.90;;;13.40;97.00;;;;;;5033329;28;20171;-70
2024/02/16 06:38:54;;;;;;;1999.90;999.90;;;13.40;94.60;;;;;;5033359;28;20199;-70
2024/02/16 06:41:20;;;;;;;1999.90;999.90;;;13.40;94.20;;;;;;5033022;28;20676;-70
2024/02/16 06:43:45;;;;;;;1999.90;999.90;;;13.50;93.70;;;;;;5033184;28;20257;-70
2024/02/16 06:46:11;;;;;;;1999.90;999.90;;;13.30;94.30;;;;;;5037215;28;20173;-71
2024/02/16 06:48:36;;;;;;;1999.90;999.90;;;13.30;95.70;;;;;;5034733;28;20165;-71
2024/02/16 06:51:02;;;;;;;1999.90;999.90;;;13.20;96.60;;;;;;5032710;28;20203;-71
2024/02/16 06:53:28;;;;;;;1999.90;999.90;;;13.20;98.40;;;;;;5033076;28;20175;-71
2024/02/16 06:55:54;;;;;;;1999.90;999.90;;;13.20;97.60;;;;;;5036831;28;20182;-70
2024/02/16 06:58:20;;;;;;;1999.90;999.90;;;13.20;96.90;;;;;;5033178;28;20184;-71
2024/02/16 07:00:45;;;;;;;1999.90;999.90;;;13.20;97.10;;;;;;5032467;28;20448;-70
2024/02/16 07:03:12;;;;;;;1999.90;999.90;;;13.20;97.40;;;;;;5033016;28;20179;-69
2024/02/16 07:05:38;;;;;;;1999.90;999.90;;;13.20;97.50;;;;;;5032988;28;20256;-70
2024/02/16 07:08:06;;;;;;;1999.90;999.90;;;13.20;96.40;;;;;;5035239;28;20421;-71
2024/02/16 07:10:31;;;;;;;1999.90;999.90;;;13.20;96.10;;;;;;5036289;28;20990;-71
2024/02/16 07:12:57;;;;;;;1999.90;999.90;;;13.20;96.80;;;;;;5035009;28;20486;-71
2024/02/16 07:15:22;;;;;;;1999.90;999.90;;;13.20;96.60;;;;;;5037911;28;20638;-70
2024/02/16 07:17:48;;;;;;;1999.90;999.90;;;13.20;97.70;;;;;;5037456;28;20218;-71
2024/02/16 07:20:15;;;;;;;1999.90;999.90;;;13.30;97.40;;;;;;5032351;28;20195;-71
2024/02/16 07:22:42;;;;;;;1999.90;999.90;;;13.40;96.50;;;;;;5033635;28;20251;-71
2024/02/16 07:25:08;;;;;;;1999.90;999.90;;;13.30;96.10;;;;;;5036391;28;20560;-70
2024/02/16 07:27:34;;;;;;;1999.90;999.90;;;13.40;96.20;;;;;;5032514;28;20823;-70
2024/02/16 07:29:59;;;;;;;1999.90;999.90;;;13.40;96.30;;;;;;5031975;28;20465;-69
2024/02/16 07:32:25;;;;;;;1999.90;999.90;;;13.40;95.50;;;;;;5032330;28;20197;-71
2024/02/16 07:34:51;;;;;;;1999.90;999.90;;;13.30;97.00;;;;;;5032245;28;20173;-71
2024/02/16 07:37:16;;;;;;;1999.90;999.90;;;13.40;96.10;;;;;;5032191;28;20173;-69
2024/02/16 07:39:42;;;;;;;1999.90;999.90;;;13.00;99.90;;;;;;5031438;28;20746;-71
2024/02/16 07:42:09;;;;;;;1999.90;999.90;;;13.20;97.60;;;;;;5032107;28;20174;-70
2024/02/16 07:44:38;;;;;;;1999.90;999.90;;;13.20;98.70;;;;;;5032473;28;20172;-71
2024/02/16 07:47:04;;;;;;;1999.90;999.90;;;13.30;99.90;;;;;;5032192;28;20405;-71
2024/02/16 07:49:30;;;;;;;1999.90;999.90;;;13.40;96.90;;;;;;5031777;28;20438;-71
2024/02/16 07:51:56;;;;;;;1999.90;999.90;;;13.50;96.10;;;;;;5032155;28;20507;-71
2024/02/16 07:54:21;;;;;;;1999.90;999.90;;;13.50;95.10;;;;;;5032073;28;20701;-71
2024/02/16 07:56:47;;;;;;;1999.90;999.90;;;13.50;96.90;;;;;;5035234;28;20163;-71
2024/02/16 07:59:13;;;;;;;1999.90;999.90;;;13.50;96.70;;;;;;5036909;28;20702;-71
2024/02/16 08:01:38;;;;;;;1999.90;999.90;;;13.50;96.60;;;;;;5033610;28;20237;-70
2024/02/16 08:04:04;;;;;;;1999.90;999.90;;;13.50;97.10;;;;;;5032186;28;20557;-70
2024/02/16 08:06:30;;;;;;;1999.90;999.90;;;13.60;96.20;;;;;;5031955;28;20182;-71
2024/02/16 08:08:55;;;;;;;1999.90;999.90;;;13.70;95.20;;;;;;5031996;28;20544;-71
2024/02/16 08:11:22;;;;;;;1999.90;999.90;;;13.70;96.10;;;;;;5031214;28;20934;-71
2024/02/16 08:13:47;;;;;;;1999.90;999.90;;;13.80;95.20;;;;;;5031879;28;20249;-71
2024/02/16 08:16:13;;;;;;;1999.90;999.90;;;13.80;95.90;;;;;;5031835;28;20494;-71
2024/02/16 08:18:39;;;;;;;1999.90;999.90;;;13.90;96.10;;;;;;5031845;28;20171;-69
2024/02/16 08:21:04;;;;;;;1999.90;999.90;;;14.00;95.80;;;;;;5031531;28;20242;-70
2024/02/16 08:23:31;;;;;;;1999.90;999.90;;;14.00;95.80;;;;;;5031771;28;20179;-71
2024/02/16 08:25:57;;;;;;;1999.90;999.90;;;14.10;95.60;;;;;;5031721;28;20528;-71
2024/02/16 08:28:23;;;;;;;1999.90;999.90;;;14.10;94.80;;;;;;5031601;28;20505;-70
2024/02/16 08:30:48;;;;;;;1999.90;999.90;;;14.20;95.00;;;;;;5031366;28;20457;-70
2024/02/16 08:33:14;;;;;;;1999.90;999.90;;;14.30;93.10;;;;;;5031608;28;20405;-70
2024/02/16 08:35:39;;;;;;;1999.90;999.90;;;14.30;91.60;;;;;;5031653;28;20164;-70
2024/02/16 08:38:05;;;;;;;1999.90;999.90;;;14.30;91.80;;;;;;5031540;28;20168;-70
2024/02/16 08:40:31;;;;;;;1999.90;999.90;;;14.20;93.20;;;;;;5031239;28;20699;-71
2024/02/16 08:42:57;;;;;;;1999.90;999.90;;;14.20;96.00;;;;;;5036397;28;20179;-71
2024/02/16 08:45:22;;;;;;;1999.90;999.90;;;14.20;95.70;;;;;;5031524;28;20210;-70
2024/02/16 08:47:48;;;;;;;1999.90;999.90;;;14.30;96.30;;;;;;5031551;28;20442;-71
2024/02/16 08:50:13;;;;;;;1999.90;999.90;;;14.30;96.40;;;;;;5031098;28;20192;-71
2024/02/16 08:52:39;;;;;;;1999.90;999.90;;;14.30;97.50;;;;;;5033137;28;20676;-71
2024/02/16 08:55:05;;;;;;;1999.90;999.90;;;14.30;98.90;;;;;;5038435;28;20513;-71
2024/02/16 08:57:33;;;;;;;1999.90;999.90;;;14.40;99.60;;;;;;5036457;28;20175;-70
2024/02/16 08:59:59;;;;;;;1999.90;999.90;;;14.40;98.30;;;;;;5037691;28;20440;-71
2024/02/16 09:02:24;;;;;;;1999.90;999.90;;;14.50;95.10;;;;;;5036583;28;20413;-69
2024/02/16 09:04:50;;;;;;;1999.90;999.90;;;14.60;91.90;;;;;;5039942;28;20520;-71
2024/02/16 09:07:16;;;;;;;1999.90;999.90;;;14.60;91.70;;;;;;5039653;28;20177;-71
2024/02/16 09:09:41;;;;;;;1999.90;999.90;;;14.60;99.90;;;;;;5037717;28;20191;-71
2024/02/16 09:12:07;;;;;;;1999.90;999.90;;;14.60;92.50;;;;;;5034922;28;20768;-71
2024/02/16 09:14:33;;;;;;;1999.90;999.90;;;14.60;93.00;;;;;;5035032;28;20167;-70
2024/02/16 09:16:58;;;;;;;1999.90;999.90;;;14.60;93.20;;;;;;5034910;28;20159;-71
2024/02/16 09:19:24;;;;;;;1999.90;999.90;;;14.80;84.90;;;;;;5034815;28;20174;-71
2024/02/16 09:21:51;;;;;;;1999.90;999.90;;;15.00;68.80;;;;;;5034831;28;20263;-71
2024/02/16 09:24:18;;;;;;;1999.90;999.90;;;15.10;61.70;;;;;;5034609;28;20674;-71
2024/02/16 09:26:46;;;;;;;1999.90;999.90;;;15.30;53.50;;;;;;5034737;28;20405;-70
2024/02/16 09:29:15;;;;;;;1999.90;999.90;;;15.50;50.50;;;;;;5034885;28;20405;-70
2024/02/16 09:31:41;;;;;;;1999.90;999.90;;;15.60;47.80;;;;;;5034399;28;20519;-70
2024/02/16 09:34:07;;;;;;;1999.90;999.90;;;15.60;45.80;;;;;;5034607;28;20401;-70
2024/02/16 09:36:32;;;;;;;1999.90;999.90;;;16.00;43.60;;;;;;5034646;28;20460;-69
2024/02/16 09:38:58;;;;;;;1999.90;999.90;;;15.70;42.90;;;;;;5034545;28;20540;-70
2024/02/16 09:41:24;;;;;;;1999.90;999.90;;;15.70;42.40;;;;;;5034161;28;20222;-70
2024/02/16 09:43:52;;;;;;;1999.90;999.90;;;15.70;41.00;;;;;;5034613;28;20646;-69
2024/02/16 09:46:21;;;;;;;1999.90;999.90;;;15.70;41.50;;;;;;5037315;28;20186;-70
2024/02/16 09:48:52;;;;;;;1999.90;999.90;;;15.70;40.70;;;;;;5017460;28;20424;-74
2024/02/16 09:51:18;;;;;;;1999.90;999.90;;;15.60;42.10;;;;;;5014024;28;20533;-72
2024/02/16 09:53:51;;;;;;;1999.90;999.90;;;15.70;42.30;;;;;;5014413;28;20804;-71
2024/02/16 09:56:17;;;;;;;1999.90;999.90;;;15.70;43.40;;;;;;5014560;28;20664;-71
2024/02/16 09:58:43;;;;;;;1999.90;999.90;;;15.80;42.70;;;;;;5013119;28;20417;-72
2024/02/16 10:01:19;;;;;;;1999.90;999.90;;;15.80;40.80;;;;;;5012248;28;20223;-68
2024/02/16 10:03:45;;;;;;;1999.90;999.90;;;16.00;39.60;;;;;;5014549;28;20648;-72
2024/02/16 10:06:11;;;;;;;1999.90;999.90;;;16.10;38.60;;;;;;5015015;28;20422;-69
2024/02/16 10:08:48;;;;;;;1999.90;999.90;;;16.10;37.90;;;;;;5013428;28;20173;-70
2024/02/16 10:11:15;;;;;;;1999.90;999.90;;;16.10;38.00;;;;;;5014611;28;20655;-69
2024/02/16 10:13:40;;;;;;;1999.90;999.90;;;16.20;37.20;;;;;;5013994;28;20472;-69
2024/02/16 10:16:11;;;;;;;1999.90;999.90;;;16.20;35.50;;;;;;5013620;28;20396;-70
2024/02/16 10:18:38;;;;;;;1999.90;999.90;;;16.20;35.90;;;;;;5013904;28;20168;-70
2024/02/16 10:21:04;;;;;;;1999.90;999.90;;;16.20;33.70;;;;;;5045735;28;20434;-69
2024/02/16 10:23:30;;;;;;;1999.90;999.90;;;16.30;34.30;;;;;;5013278;28;20412;-69
2024/02/16 10:25:56;;;;;;;1999.90;999.90;;;16.30;35.50;;;;;;5013503;28;20491;-69
2024/02/16 10:28:27;;;;;;;1999.90;999.90;;;16.20;34.60;;;;;;5013675;28;20993;-69
2024/02/16 10:30:57;;;;;;;1999.90;999.90;;;16.10;37.20;;;;;;5012728;28;20809;-69
2024/02/16 10:33:24;;;;;;;1999.90;999.90;;;16.10;38.00;;;;;;5012888;28;20437;-69
2024/02/16 10:35:51;;;;;;;1999.90;999.90;;;16.10;37.80;;;;;;5013760;28;20407;-69
2024/02/16 10:38:18;;;;;;;1999.90;999.90;;;16.20;35.80;;;;;;5013001;28;20496;-69
2024/02/16 10:40:44;;;;;;;1999.90;999.90;;;16.30;41.90;;;;;;5013269;28;20438;-69
2024/02/16 10:43:13;;;;;;;1999.90;999.90;;;16.30;45.90;;;;;;5013487;28;20941;-70
2024/02/16 10:45:39;;;;;;;1999.90;999.90;;;16.30;45.50;;;;;;5012969;28;20411;-69
2024/02/16 10:48:06;;;;;;;1999.90;999.90;;;16.30;47.00;;;;;;5013223;28;20423;-69
2024/02/16 10:50:34;;;;;;;1999.90;999.90;;;16.30;42.20;;;;;;5044051;28;20465;-69
2024/02/16 10:53:11;;;;;;;1999.90;999.90;;;16.40;43.60;;;;;;5012596;28;20407;-69
2024/02/16 10:55:37;;;;;;;1999.90;999.90;;;16.40;40.20;;;;;;5013250;28;20419;-69
2024/02/16 10:58:03;;;;;;;1999.90;999.90;;;16.50;38.80;;;;;;5013095;28;20404;-70
2024/02/16 11:00:29;;;;;;;1999.90;999.90;;;16.50;38.70;;;;;;5012311;28;20219;-69
2024/02/16 11:02:56;;;;;;;1999.90;999.90;;;16.50;37.50;;;;;;5012612;28;20176;-70
2024/02/16 11:05:46;;;;;;;1999.90;999.90;;;16.50;40.80;;;;;;5013258;28;20173;-70
2024/02/16 11:08:14;;;;;;;1999.90;999.90;;;16.40;41.90;;;;;;5013076;28;20420;-70
2024/02/16 11:10:40;;;;;;;1999.90;999.90;;;16.40;41.90;;;;;;5012753;28;20467;-69
2024/02/16 11:13:06;;;;;;;1999.90;999.90;;;16.30;43.70;;;;;;5012889;28;20902;-70
2024/02/16 11:15:34;;;;;;;1999.90;999.90;;;16.30;47.00;;;;;;5011548;28;20178;-70
2024/02/16 11:18:04;;;;;;;1999.90;999.90;;;16.30;47.30;;;;;;5012897;28;20519;-69
2024/02/16 11:20:37;;;;;;;1999.90;999.90;;;16.20;47.90;;;;;;5012720;28;20430;-69
2024/02/16 11:23:08;;;;;;;1999.90;999.90;;;16.30;48.40;;;;;;5012282;28;20404;-70
2024/02/16 11:25:35;;;;;;;1999.90;999.90;;;16.20;51.40;;;;;;5012819;28;20496;-70
2024/02/16 11:28:03;;;;;;;1999.90;999.90;;;16.20;51.60;;;;;;5012769;28;20420;-69
2024/02/16 11:30:31;;;;;;;1999.90;999.90;;;16.30;50.70;;;;;;5011856;28;20511;-70
2024/02/16 11:32:57;;;;;;;1999.90;999.90;;;16.30;51.20;;;;;;5012527;28;20497;-70
2024/02/16 11:35:23;;;;;;;1999.90;999.90;;;16.20;51.30;;;;;;5012624;28;20489;-70
2024/02/16 11:37:48;;;;;;;1999.90;999.90;;;16.20;53.10;;;;;;5011951;28;20602;-70
2024/02/16 11:40:14;;;;;;;1999.90;999.90;;;16.10;55.10;;;;;;5012350;28;20269;-70
2024/02/16 11:42:41;;;;;;;1999.90;999.90;;;16.10;57.60;;;;;;5012223;28;20173;-69
2024/02/16 11:45:13;;;;;;;1999.90;999.90;;;16.10;56.30;;;;;;5011184;28;20268;-69
2024/02/16 11:47:39;;;;;;;1999.90;999.90;;;16.10;56.20;;;;;;5011518;28;20409;-69
2024/02/16 11:50:10;;;;;;;1999.90;999.90;;;16.10;56.30;;;;;;5011563;28;20871;-69
2024/02/16 11:52:38;;;;;;;1999.90;999.90;;;16.20;55.40;;;;;;5010971;28;20718;-69
2024/02/16 11:55:04;;;;;;;1999.90;999.90;;;16.10;58.80;;;;;;5012320;28;20399;-69